createdAt,value
2019-06-20T00:00:49.073Z,100844.52
2019-06-20T00:03:18.671Z,100836.58
2019-06-20T00:05:48.165Z,100843.93
2019-06-20T00:08:17.792Z,100838.05
2019-06-20T00:10:47.422Z,100850.07
2019-06-20T00:13:16.890Z,100846.95
2019-06-20T00:15:46.319Z,100843.34
2019-06-20T00:18:15.792Z,100843.23
2019-06-20T00:20:45.306Z,100843.50
2019-06-20T00:23:14.786Z,100842.91
2019-06-20T00:25:44.205Z,100835.08
2019-06-20T00:28:13.738Z,100838.20
2019-06-20T00:30:43.168Z,100837.99
2019-06-20T00:33:12.626Z,100836.48
2019-06-20T00:35:42.049Z,100844.42
2019-06-20T00:38:11.518Z,100844.69
2019-06-20T00:40:41.023Z,100845.53
2019-06-20T00:43:17.550Z,100845.53
2019-06-20T00:45:41.616Z,100841.70
2019-06-20T00:48:11.081Z,100845.57
2019-06-20T00:50:40.522Z,100847.27
2019-06-20T00:53:10.067Z,100841.97
2019-06-20T00:55:39.633Z,100849.17
2019-06-20T00:58:09.176Z,100850.31
2019-06-20T01:00:38.692Z,100845.09
2019-06-20T01:03:08.324Z,100837.08
2019-06-20T01:05:37.755Z,100827.89
2019-06-20T01:08:07.288Z,100828.73
2019-06-20T01:10:36.753Z,100833.33
2019-06-20T01:13:06.268Z,100830.53
2019-06-20T01:15:35.788Z,100833.44
2019-06-20T01:18:05.261Z,100838.03
2019-06-20T01:20:34.992Z,100844.58
2019-06-20T01:23:04.599Z,100843.73
2019-06-20T01:25:37.259Z,100842.30
2019-06-20T01:28:06.872Z,100843.14
2019-06-20T01:30:36.325Z,100843.52
2019-06-20T01:33:06.632Z,100846.53
2019-06-20T01:35:36.160Z,100847.05
2019-06-20T01:38:06.062Z,100844.50
2019-06-20T01:40:35.529Z,100850.39
2019-06-20T01:43:05.061Z,100851.45
2019-06-20T01:45:34.586Z,100849.77
2019-06-20T01:48:04.127Z,100846.75
2019-06-20T01:50:33.589Z,100836.20
2019-06-20T01:53:03.058Z,100841.34
2019-06-20T01:55:32.516Z,100839.62
2019-06-20T01:58:02.041Z,100843.41
2019-06-20T02:00:46.772Z,100840.50
2019-06-20T02:03:17.072Z,100833.40
2019-06-20T02:05:46.593Z,100839.12
2019-06-20T02:08:16.318Z,100837.14
2019-06-20T02:10:45.879Z,100843.50
2019-06-20T02:13:15.485Z,100845.36
2019-06-20T02:15:44.982Z,100841.71
2019-06-20T02:18:14.515Z,100847.60
2019-06-20T02:20:53.027Z,100845.45
2019-06-20T02:23:23.020Z,100842.77
2019-06-20T02:25:52.526Z,100843.33
2019-06-20T02:28:23.123Z,100839.38
2019-06-20T02:30:52.764Z,100840.91
2019-06-20T02:33:22.292Z,100839.89
2019-06-20T02:35:51.789Z,100847.16
2019-06-20T02:38:21.240Z,100847.09
2019-06-20T02:40:50.738Z,100846.92
2019-06-20T02:43:20.299Z,100845.57
2019-06-20T02:45:49.793Z,100842.28
2019-06-20T02:48:19.335Z,100849.47
2019-06-20T02:50:49.491Z,100841.44
2019-06-20T02:53:19.007Z,100851.09
2019-06-20T02:55:48.434Z,100857.42
2019-06-20T02:58:19.170Z,100852.98
2019-06-20T03:00:54.496Z,100863.84
2019-06-20T03:03:24.616Z,100859.22
2019-06-20T03:05:54.046Z,100869.68
2019-06-20T03:08:23.661Z,100872.13
2019-06-20T03:10:53.224Z,100885.61
2019-06-20T03:13:22.791Z,100875.98
2019-06-20T03:15:52.220Z,100879.00
2019-06-20T03:18:21.707Z,100875.31
2019-06-20T03:20:51.141Z,100881.07
2019-06-20T03:23:20.620Z,100883.89
2019-06-20T03:25:50.129Z,100883.04
2019-06-20T03:28:19.696Z,100883.41
2019-06-20T03:30:49.190Z,100892.59
2019-06-20T03:33:18.689Z,100890.22
2019-06-20T03:35:48.179Z,100894.29
2019-06-20T03:38:17.650Z,100885.95
2019-06-20T03:40:47.090Z,100880.50
2019-06-20T03:43:16.602Z,100882.23
2019-06-20T03:45:46.064Z,100875.99
2019-06-20T03:48:15.522Z,100881.66
2019-06-20T03:50:44.966Z,100883.72
2019-06-20T03:53:14.447Z,100884.56
2019-06-20T03:55:43.873Z,100883.63
2019-06-20T03:58:13.429Z,100875.62
2019-06-20T04:00:42.879Z,100881.35
2019-06-20T04:03:12.469Z,100891.08
2019-06-20T04:05:41.979Z,100889.20
2019-06-20T04:08:11.516Z,100891.48
2019-06-20T04:10:40.953Z,100890.87
2019-06-20T04:13:10.427Z,100892.97
2019-06-20T04:15:39.875Z,100892.22
2019-06-20T04:18:09.345Z,100904.76
2019-06-20T04:20:38.774Z,100902.22
2019-06-20T04:23:08.259Z,100907.41
2019-06-20T04:25:37.689Z,100905.61
2019-06-20T04:28:07.150Z,100914.38
2019-06-20T04:30:36.579Z,100919.56
2019-06-20T04:33:06.219Z,100922.48
2019-06-20T04:35:35.646Z,100920.79
2019-06-20T04:38:05.983Z,100923.64
2019-06-20T04:40:35.439Z,100923.94
2019-06-20T04:43:04.890Z,100919.67
2019-06-20T04:45:54.261Z,100930.34
2019-06-20T04:48:23.724Z,100936.68
2019-06-20T04:50:53.181Z,100934.96
2019-06-20T04:53:22.769Z,100944.41
2019-06-20T04:55:52.414Z,100952.05
2019-06-20T04:58:21.925Z,100965.91
2019-06-20T05:00:51.446Z,100971.67
2019-06-20T05:03:20.905Z,100974.41
2019-06-20T05:05:50.438Z,100968.85
2019-06-20T05:08:19.876Z,100967.80
2019-06-20T05:10:49.421Z,100970.38
2019-06-20T05:13:18.921Z,100989.43
2019-06-20T05:15:53.029Z,100979.70
2019-06-20T05:18:19.536Z,100992.45
2019-06-20T05:20:50.783Z,100987.53
2019-06-20T05:23:20.437Z,100980.83
2019-06-20T05:25:49.894Z,100986.22
2019-06-20T05:28:19.365Z,100991.88
2019-06-20T05:30:48.835Z,100989.50
2019-06-20T05:33:18.299Z,101005.95
2019-06-20T05:35:47.821Z,101002.80
2019-06-20T05:38:17.293Z,101011.41
2019-06-20T05:40:46.752Z,101012.16
2019-06-20T05:43:16.519Z,101016.87
2019-06-20T05:45:48.815Z,101011.48
2019-06-20T05:48:18.584Z,101011.31
2019-06-20T05:50:48.599Z,101015.45
2019-06-20T05:53:18.144Z,101010.39
2019-06-20T05:55:47.618Z,101006.05
2019-06-20T05:58:17.222Z,101010.97
2019-06-20T06:00:46.762Z,101014.29
2019-06-20T06:03:16.298Z,101019.01
2019-06-20T06:05:45.757Z,101023.68
2019-06-20T06:08:16.397Z,101024.67
2019-06-20T06:10:47.026Z,101024.26
2019-06-20T06:13:16.642Z,101022.98
2019-06-20T06:15:46.106Z,101020.28
2019-06-20T06:18:15.556Z,101015.47
2019-06-20T06:20:45.259Z,101016.95
2019-06-20T06:23:14.864Z,101024.47
2019-06-20T06:25:44.436Z,101018.43
2019-06-20T06:28:13.911Z,101019.65
2019-06-20T06:30:43.361Z,101023.23
2019-06-20T06:33:13.175Z,101023.20
2019-06-20T06:35:42.595Z,101027.12
2019-06-20T06:38:12.068Z,101032.05
2019-06-20T06:40:41.544Z,101036.89
2019-06-20T06:43:10.989Z,101035.62
2019-06-20T06:45:40.782Z,101042.52
2019-06-20T06:48:10.248Z,101043.47
2019-06-20T06:50:39.758Z,101055.65
2019-06-20T06:53:09.223Z,101058.17
2019-06-20T06:55:38.659Z,101059.66
2019-06-20T06:58:08.124Z,101060.50
2019-06-20T07:00:37.632Z,101060.95
2019-06-20T07:03:07.301Z,101059.64
2019-06-20T07:05:36.748Z,101074.77
2019-06-20T07:08:06.175Z,101071.91
2019-06-20T07:10:35.626Z,101078.25
2019-06-20T07:13:05.220Z,101080.61
2019-06-20T07:15:34.748Z,101080.72
2019-06-20T07:18:04.452Z,101084.34
2019-06-20T07:20:33.896Z,101079.59
2019-06-20T07:23:03.412Z,101084.23
2019-06-20T07:25:32.873Z,101089.48
2019-06-20T07:28:02.290Z,101092.61
2019-06-20T07:30:31.828Z,101094.41
2019-06-20T07:33:01.244Z,101094.50
2019-06-20T07:35:30.723Z,101090.23
2019-06-20T07:38:00.140Z,101086.25
2019-06-20T07:40:30.316Z,101090.34
2019-06-20T07:42:59.738Z,101084.34
2019-06-20T07:45:29.274Z,101082.75
2019-06-20T07:47:58.707Z,101095.09
2019-06-20T07:50:28.176Z,101101.43
2019-06-20T07:53:02.652Z,101095.05
2019-06-20T07:55:28.773Z,101094.98
2019-06-20T07:57:58.177Z,101100.19
2019-06-20T08:00:28.200Z,101093.51
2019-06-20T08:02:57.629Z,101100.88
2019-06-20T08:05:27.088Z,101101.33
2019-06-20T08:07:56.550Z,101107.06
2019-06-20T08:10:27.209Z,101107.00
2019-06-20T08:12:56.663Z,101093.00
2019-06-20T08:15:26.248Z,101085.06
2019-06-20T08:17:55.713Z,101091.20
2019-06-20T08:20:25.504Z,101092.80
2019-06-20T08:22:54.965Z,101096.69
2019-06-20T08:25:24.552Z,101097.88
2019-06-20T08:27:54.064Z,101097.88
2019-06-20T08:30:26.670Z,101099.90
2019-06-20T08:32:58.130Z,101082.92
2019-06-20T08:35:29.824Z,101101.56
2019-06-20T08:38:03.480Z,101105.63
2019-06-20T08:40:36.287Z,101108.81
2019-06-20T08:43:06.409Z,101094.32
2019-06-20T08:45:38.377Z,101112.86
2019-06-20T08:48:07.988Z,101111.52
2019-06-20T08:50:37.763Z,101110.03
2019-06-20T08:53:07.392Z,101110.03
2019-06-20T08:55:37.056Z,101114.66
2019-06-20T08:58:06.860Z,101117.69
2019-06-20T09:00:37.920Z,101124.65
2019-06-20T09:03:07.640Z,101123.67
2019-06-20T09:05:37.108Z,101124.98
2019-06-20T09:08:11.242Z,101129.52
2019-06-20T09:10:41.244Z,101129.84
2019-06-20T09:13:12.547Z,101143.14
2019-06-20T09:15:43.121Z,101145.23
2019-06-20T09:18:12.730Z,101143.47
2019-06-20T09:20:42.466Z,101143.47
2019-06-20T09:23:11.997Z,101147.11
2019-06-20T09:25:41.756Z,101144.91
2019-06-20T09:28:11.330Z,101151.95
2019-06-20T09:30:41.060Z,101151.95
2019-06-20T09:33:10.521Z,101152.77
2019-06-20T09:35:40.044Z,101156.42
2019-06-20T09:38:09.817Z,101156.42
2019-06-20T09:40:39.454Z,101161.73
2019-06-20T09:43:09.094Z,101160.30
2019-06-20T09:45:39.000Z,101167.37
2019-06-20T09:48:09.388Z,101172.82
2019-06-20T09:50:38.909Z,101170.31
2019-06-20T09:53:08.362Z,101167.70
2019-06-20T09:55:37.996Z,101166.66
2019-06-20T09:58:07.601Z,101170.95
2019-06-20T10:00:37.879Z,101175.50
2019-06-20T10:03:07.325Z,101175.50
2019-06-20T10:05:36.906Z,101181.06
2019-06-20T10:08:06.563Z,101180.06
2019-06-20T10:10:36.723Z,101175.52
2019-06-20T10:13:08.010Z,101169.15
2019-06-20T10:15:38.257Z,101176.45
2019-06-20T10:18:08.446Z,101180.59
2019-06-20T10:20:38.974Z,101190.00
2019-06-20T10:23:08.918Z,101189.03
2019-06-20T10:25:38.916Z,101183.35
2019-06-20T10:28:08.467Z,101186.02
2019-06-20T10:30:37.981Z,101190.23
2019-06-20T10:33:07.481Z,101189.74
2019-06-20T10:35:36.908Z,101180.88
2019-06-20T10:38:06.363Z,101185.25
2019-06-20T10:40:35.873Z,101183.66
2019-06-20T10:43:05.787Z,101184.62
2019-06-20T10:45:36.390Z,101188.41
2019-06-20T10:48:06.345Z,101190.63
2019-06-20T10:50:35.879Z,101192.91
2019-06-20T10:53:05.492Z,101187.82
2019-06-20T10:55:35.005Z,101190.03
2019-06-20T10:58:04.882Z,101191.44
2019-06-20T11:00:34.362Z,101187.21
2019-06-20T11:03:03.975Z,101183.10
2019-06-20T11:05:42.067Z,101184.75
2019-06-20T11:08:12.906Z,101189.59
2019-06-20T11:10:43.595Z,101185.69
2019-06-20T11:13:13.728Z,101190.17
2019-06-20T11:15:44.077Z,101191.73
2019-06-20T11:18:13.622Z,101183.23
2019-06-20T11:20:44.351Z,101190.83
2019-06-20T11:23:13.983Z,101199.17
2019-06-20T11:25:43.697Z,101211.27
2019-06-20T11:28:13.152Z,101205.28
2019-06-20T11:30:54.069Z,101212.00
2019-06-20T11:33:13.924Z,101207.25
2019-06-20T11:35:43.566Z,101204.23
2019-06-20T11:38:13.060Z,101209.02
2019-06-20T11:40:43.823Z,101231.53
2019-06-20T11:43:13.488Z,101221.88
2019-06-20T11:45:44.167Z,101220.22
2019-06-20T11:48:13.777Z,101222.84
2019-06-20T11:50:43.238Z,101230.63
2019-06-20T11:53:12.727Z,101229.22
2019-06-20T11:55:42.742Z,101228.79
2019-06-20T11:58:12.207Z,101221.75
2019-06-20T12:00:41.747Z,101219.71
2019-06-20T12:03:11.233Z,101219.53
2019-06-20T12:05:41.866Z,101218.30
2019-06-20T12:08:11.833Z,101223.67
2019-06-20T12:10:43.067Z,101214.84
2019-06-20T12:13:12.573Z,101222.34
2019-06-20T12:15:42.830Z,101221.33
2019-06-20T12:18:12.467Z,101227.50
2019-06-20T12:20:42.893Z,101229.39
2019-06-20T12:23:12.444Z,101229.05
2019-06-20T12:25:42.716Z,101217.27
2019-06-20T12:28:12.265Z,101228.97
2019-06-20T12:30:41.708Z,101225.38
2019-06-20T12:33:12.696Z,101216.17
2019-06-20T12:35:42.791Z,101218.85
2019-06-20T12:38:15.118Z,101219.50
2019-06-20T12:40:44.089Z,101220.59
2019-06-20T12:43:13.600Z,101217.59
2019-06-20T12:45:43.973Z,101218.67
2019-06-20T12:48:13.443Z,101221.08
2019-06-20T12:50:43.073Z,101227.27
2019-06-20T12:53:12.592Z,101267.37
2019-06-20T12:55:42.472Z,101267.37
2019-06-20T12:58:12.146Z,101246.80
2019-06-20T13:00:43.613Z,101263.38
2019-06-20T13:03:12.885Z,101256.34
2019-06-20T13:05:43.263Z,101259.22
2019-06-20T13:08:13.700Z,101258.08
2019-06-20T13:10:44.191Z,101254.52
2019-06-20T13:13:13.807Z,101258.66
2019-06-20T13:15:44.502Z,101259.08
2019-06-20T13:18:14.052Z,101254.34
2019-06-20T13:20:44.260Z,101280.44
2019-06-20T13:23:13.791Z,101273.43
2019-06-20T13:25:44.585Z,101268.02
2019-06-20T13:28:14.102Z,101278.86
2019-06-20T13:30:47.279Z,101283.24
2019-06-20T13:33:14.719Z,101288.08
2019-06-20T13:35:45.385Z,101289.36
2019-06-20T13:38:14.866Z,101291.28
2019-06-20T13:40:45.375Z,101283.33
2019-06-20T13:43:14.942Z,101277.14
2019-06-20T13:45:44.754Z,101279.08
2019-06-20T13:48:14.371Z,101282.41
2019-06-20T13:50:45.238Z,101285.86
2019-06-20T13:53:14.840Z,101294.77
2019-06-20T13:55:45.734Z,101301.34
2019-06-20T13:58:15.281Z,101291.11
2019-06-20T14:00:45.437Z,101284.25
2019-06-20T14:03:15.079Z,101285.49
2019-06-20T14:05:45.385Z,101283.54
2019-06-20T14:08:15.084Z,101287.69
2019-06-20T14:10:46.001Z,101282.88
2019-06-20T14:13:19.418Z,101291.75
2019-06-20T14:15:48.451Z,101288.73
2019-06-20T14:18:18.031Z,101282.71
2019-06-20T14:20:48.528Z,101295.61
2019-06-20T14:23:18.092Z,101286.00
2019-06-20T14:25:48.796Z,101286.00
2019-06-20T14:28:18.338Z,101295.20
2019-06-20T14:30:48.301Z,101302.73
2019-06-20T14:33:17.924Z,101304.97
2019-06-20T14:35:47.896Z,101298.92
2019-06-20T14:38:20.135Z,101299.55
2019-06-20T14:40:49.947Z,101296.57
2019-06-20T14:43:19.421Z,101308.19
2019-06-20T14:45:50.650Z,101306.66
2019-06-20T14:48:21.027Z,101312.22
2019-06-20T14:50:51.349Z,101320.12
2019-06-20T14:53:20.778Z,101316.08
2019-06-20T14:55:51.620Z,101325.59
2019-06-20T14:58:21.200Z,101324.16
2019-06-20T15:00:51.853Z,101312.86
2019-06-20T15:03:21.547Z,101327.08
2019-06-20T15:05:52.461Z,101327.08
2019-06-20T15:08:22.942Z,101326.72
2019-06-20T15:10:52.389Z,101334.11
2019-06-20T15:13:21.852Z,101337.63
2019-06-20T15:15:51.367Z,101337.63
2019-06-20T15:18:20.893Z,101346.45
2019-06-20T15:20:51.880Z,101343.33
2019-06-20T15:23:21.672Z,101349.40
2019-06-20T15:25:52.143Z,101351.17
2019-06-20T15:28:21.715Z,101359.36
2019-06-20T15:30:52.585Z,101362.46
2019-06-20T15:33:22.221Z,101367.80
2019-06-20T15:35:53.424Z,101367.80
2019-06-20T15:38:22.930Z,101375.97
2019-06-20T15:40:53.381Z,101377.41
2019-06-20T15:43:23.006Z,101377.03
2019-06-20T15:45:53.739Z,101383.56
2019-06-20T15:48:23.385Z,101393.55
2019-06-20T15:50:52.798Z,101388.72
2019-06-20T15:53:23.731Z,101394.52
2019-06-20T15:55:53.244Z,101394.52
2019-06-20T15:58:22.692Z,101395.27
2019-06-20T16:00:52.121Z,101400.73
2019-06-20T16:03:21.583Z,101405.66
2019-06-20T16:05:51.010Z,101403.69
2019-06-20T16:08:20.530Z,101413.10
2019-06-20T16:10:49.934Z,101410.65
2019-06-20T16:13:19.450Z,101404.61
2019-06-20T16:15:48.977Z,101405.32
2019-06-20T16:18:18.420Z,101405.32
2019-06-20T16:20:47.827Z,101410.95
2019-06-20T16:23:17.295Z,101406.92
2019-06-20T16:25:46.713Z,101414.14
2019-06-20T16:28:16.163Z,101419.64
2019-06-20T16:30:45.659Z,101419.86
2019-06-20T16:33:24.665Z,101423.23
2019-06-20T16:35:46.247Z,101425.55
2019-06-20T16:38:15.714Z,101429.12
2019-06-20T16:40:47.172Z,101420.97
2019-06-20T16:43:18.272Z,101421.91
2019-06-20T16:45:47.830Z,101434.08
2019-06-20T16:48:17.342Z,101434.08
2019-06-20T16:50:46.793Z,101424.09
2019-06-20T16:53:16.317Z,101420.45
2019-06-20T16:55:45.851Z,101421.67
2019-06-20T16:58:15.268Z,101417.70
2019-06-20T17:00:46.432Z,101409.63
2019-06-20T17:03:15.871Z,101418.41
2019-06-20T17:05:45.463Z,101415.14
2019-06-20T17:08:14.911Z,101412.70
2019-06-20T17:10:44.494Z,101411.64
2019-06-20T17:13:13.970Z,101410.41
2019-06-20T17:15:43.452Z,101413.56
2019-06-20T17:18:12.921Z,101413.91
2019-06-20T17:20:42.445Z,101421.42
2019-06-20T17:23:11.893Z,101418.96
2019-06-20T17:25:42.203Z,101418.01
2019-06-20T17:28:11.792Z,101422.73
2019-06-20T17:30:41.241Z,101418.52
2019-06-20T17:33:10.705Z,101416.55
2019-06-20T17:35:40.360Z,101421.27
2019-06-20T17:38:09.832Z,101419.00
2019-06-20T17:40:39.356Z,101419.48
2019-06-20T17:43:08.822Z,101423.35
2019-06-20T17:45:39.939Z,101418.52
2019-06-20T17:48:09.397Z,101420.16
2019-06-20T17:50:39.569Z,101424.94
2019-06-20T17:53:10.534Z,101423.59
2019-06-20T17:55:39.993Z,101427.66
2019-06-20T17:58:09.428Z,101422.08
2019-06-20T18:00:39.180Z,101426.50
2019-06-20T18:03:08.617Z,101433.53
2019-06-20T18:05:38.135Z,101432.68
2019-06-20T18:08:15.052Z,101441.28
2019-06-20T18:10:40.367Z,101439.47
2019-06-20T18:13:09.829Z,101444.70
2019-06-20T18:15:39.340Z,101447.63
2019-06-20T18:18:08.786Z,101455.73
2019-06-20T18:20:38.313Z,101461.03
2019-06-20T18:23:07.769Z,101457.41
2019-06-20T18:25:37.240Z,101458.45
2019-06-20T18:28:06.791Z,101466.73
2019-06-20T18:30:39.251Z,101470.45
2019-06-20T18:33:08.780Z,101473.64
2019-06-20T18:35:38.455Z,101477.00
2019-06-20T18:38:08.000Z,101473.08
2019-06-20T18:40:37.514Z,101482.03
2019-06-20T18:43:06.987Z,101487.53
2019-06-20T18:45:36.476Z,101492.23
2019-06-20T18:48:06.078Z,101497.48
2019-06-20T18:50:35.514Z,101501.62
2019-06-20T18:53:05.375Z,101505.20
2019-06-20T18:55:34.785Z,101513.78
2019-06-20T18:58:04.232Z,101518.35
2019-06-20T19:00:35.282Z,101514.06
2019-06-20T19:03:05.586Z,101517.33
2019-06-20T19:05:35.006Z,101516.61
2019-06-20T19:08:04.596Z,101520.29
2019-06-20T19:10:34.079Z,101533.69
2019-06-20T19:13:03.821Z,101527.34
2019-06-20T19:15:33.643Z,101531.59
2019-06-20T19:18:03.182Z,101528.37
2019-06-20T19:20:32.595Z,101538.78
2019-06-20T19:23:02.057Z,101535.20
2019-06-20T19:25:31.465Z,101534.34
2019-06-20T19:28:00.903Z,101542.39
2019-06-20T19:30:44.054Z,101548.57
2019-06-20T19:33:13.476Z,101537.22
2019-06-20T19:35:42.994Z,101544.63
2019-06-20T19:38:12.557Z,101542.06
2019-06-20T19:40:44.924Z,101548.56
2019-06-20T19:43:14.399Z,101559.98
2019-06-20T19:45:44.482Z,101559.98
2019-06-20T19:48:14.648Z,101565.52
2019-06-20T19:50:44.721Z,101565.95
2019-06-20T19:53:14.280Z,101565.73
2019-06-20T19:55:44.069Z,101568.38
2019-06-20T19:58:13.483Z,101573.16
2019-06-20T20:00:43.194Z,101557.39
2019-06-20T20:03:12.780Z,101567.03
2019-06-20T20:05:42.633Z,101572.23
2019-06-20T20:08:12.162Z,101578.08
2019-06-20T20:10:49.215Z,101579.70
2019-06-20T20:13:18.900Z,101584.91
2019-06-20T20:15:48.588Z,101582.17
2019-06-20T20:18:18.527Z,101592.45
2019-06-20T20:20:48.606Z,101589.55
2019-06-20T20:23:18.148Z,101590.88
2019-06-20T20:25:47.717Z,101602.25
2019-06-20T20:28:17.182Z,101605.11
2019-06-20T20:30:46.691Z,101605.44
2019-06-20T20:33:16.143Z,101605.42
2019-06-20T20:35:45.961Z,101609.71
2019-06-20T20:38:15.443Z,101605.81
2019-06-20T20:40:45.570Z,101600.31
2019-06-20T20:43:14.984Z,101600.05
2019-06-20T20:45:44.523Z,101602.91
2019-06-20T20:48:14.019Z,101609.71
2019-06-20T20:50:43.753Z,101620.08
2019-06-20T20:53:13.159Z,101619.45
2019-06-20T20:55:42.773Z,101622.37
2019-06-20T20:58:12.183Z,101619.14
2019-06-20T21:00:47.337Z,101618.88
2019-06-20T21:03:16.779Z,101627.41
2019-06-20T21:05:51.519Z,101623.75
2019-06-20T21:08:17.375Z,101621.38
2019-06-20T21:10:47.423Z,101625.09
2019-06-20T21:13:16.802Z,101629.19
2019-06-20T21:15:46.348Z,101629.98
2019-06-20T21:18:15.777Z,101631.32
2019-06-20T21:20:45.226Z,101632.93
2019-06-20T21:23:14.658Z,101632.61
2019-06-20T21:25:44.126Z,101634.50
2019-06-20T21:28:13.553Z,101634.04
2019-06-20T21:30:43.155Z,101627.73
2019-06-20T21:33:12.571Z,101629.13
2019-06-20T21:35:42.093Z,101637.81
2019-06-20T21:38:11.529Z,101639.02
2019-06-20T21:40:40.985Z,101636.84
2019-06-20T21:43:10.408Z,101636.02
2019-06-20T21:45:39.853Z,101641.56
2019-06-20T21:48:09.343Z,101643.48
2019-06-20T21:50:38.960Z,101647.50
2019-06-20T21:53:08.455Z,101644.52
2019-06-20T21:55:37.907Z,101648.53
2019-06-20T21:58:07.413Z,101648.34
2019-06-20T22:00:41.562Z,101646.34
2019-06-20T22:03:11.419Z,101653.77
2019-06-20T22:05:41.020Z,101657.44
2019-06-20T22:08:10.609Z,101658.03
2019-06-20T22:10:40.063Z,101653.85
2019-06-20T22:13:09.564Z,101655.23
2019-06-20T22:15:39.132Z,101658.13
2019-06-20T22:18:08.625Z,101652.14
2019-06-20T22:20:38.212Z,101654.94
2019-06-20T22:23:07.640Z,101650.59
2019-06-20T22:25:37.162Z,101649.02
2019-06-20T22:28:06.653Z,101652.17
2019-06-20T22:30:48.248Z,101652.80
2019-06-20T22:33:17.714Z,101650.56
2019-06-20T22:35:47.263Z,101648.58
2019-06-20T22:38:16.809Z,101650.03
2019-06-20T22:40:46.747Z,101653.61
2019-06-20T22:43:16.555Z,101653.52
2019-06-20T22:45:46.455Z,101652.42
2019-06-20T22:48:15.978Z,101649.00
2019-06-20T22:50:45.814Z,101654.97
2019-06-20T22:53:15.308Z,101659.02
2019-06-20T22:55:45.360Z,101658.34
2019-06-20T22:58:14.818Z,101655.72
2019-06-20T23:00:44.847Z,101661.10
2019-06-20T23:03:14.307Z,101657.16
2019-06-20T23:05:43.762Z,101666.88
2019-06-20T23:08:13.349Z,101659.02
2019-06-20T23:10:42.817Z,101656.39
2019-06-20T23:13:12.580Z,101656.39
2019-06-20T23:15:42.055Z,101652.97
2019-06-20T23:18:11.580Z,101648.80
2019-06-20T23:20:41.579Z,101657.63
2019-06-20T23:23:11.040Z,101653.30
2019-06-20T23:25:42.214Z,101654.14
2019-06-20T23:28:11.793Z,101662.44
2019-06-20T23:30:41.603Z,101660.77
2019-06-20T23:33:11.235Z,101657.14
2019-06-20T23:35:40.690Z,101658.00
2019-06-20T23:38:10.153Z,101654.14
2019-06-20T23:40:39.609Z,101654.61
2019-06-20T23:43:09.073Z,101657.63
2019-06-20T23:45:40.156Z,101650.72
2019-06-20T23:48:09.655Z,101653.35
2019-06-20T23:50:39.067Z,101655.46
2019-06-20T23:53:15.927Z,101655.25
2019-06-20T23:55:45.466Z,101658.08
2019-06-20T23:58:15.052Z,101652.62
